sensor_id;sensor_type;location;lat;lon;timestamp;temperature;humidity
25914;DHT22;13718;50.922;5.346;2023-01-26T00:01:26;1.00;99.90
25914;DHT22;13718;50.922;5.346;2023-01-26T00:03:55;1.00;99.90
25914;DHT22;13718;50.922;5.346;2023-01-26T00:06:21;0.90;99.90
25914;DHT22;13718;50.922;5.346;2023-01-26T00:08:51;0.80;99.90
25914;DHT22;13718;50.922;5.346;2023-01-26T00:11:18;0.80;99.90
25914;DHT22;13718;50.922;5.346;2023-01-26T00:13:43;0.80;99.90
25914;DHT22;13718;50.922;5.346;2023-01-26T00:16:10;0.80;99.90
25914;DHT22;13718;50.922;5.346;2023-01-26T00:18:36;0.80;99.90
25914;DHT22;13718;50.922;5.346;2023-01-26T00:21:02;0.80;99.90
25914;DHT22;13718;50.922;5.346;2023-01-26T00:23:28;0.80;99.90
25914;DHT22;13718;50.922;5.346;2023-01-26T00:25:55;0.90;99.90
25914;DHT22;13718;50.922;5.346;2023-01-26T00:28:20;1.00;99.90
25914;DHT22;13718;50.922;5.346;2023-01-26T00:30:46;1.00;99.90
25914;DHT22;13718;50.922;5.346;2023-01-26T00:33:11;1.00;99.90
25914;DHT22;13718;50.922;5.346;2023-01-26T00:35:37;1.10;99.90
25914;DHT22;13718;50.922;5.346;2023-01-26T00:38:03;1.10;99.90
25914;DHT22;13718;50.922;5.346;2023-01-26T00:40:28;1.00;99.90
25914;DHT22;13718;50.922;5.346;2023-01-26T00:42:54;1.00;99.90
25914;DHT22;13718;50.922;5.346;2023-01-26T00:45:22;1.10;99.90
25914;DHT22;13718;50.922;5.346;2023-01-26T00:47:48;1.10;99.90
25914;DHT22;13718;50.922;5.346;2023-01-26T00:50:13;1.30;99.90
25914;DHT22;13718;50.922;5.346;2023-01-26T00:52:39;1.30;99.90
25914;DHT22;13718;50.922;5.346;2023-01-26T00:55:04;1.20;99.90
25914;DHT22;13718;50.922;5.346;2023-01-26T00:57:30;1.10;99.90
25914;DHT22;13718;50.922;5.346;2023-01-26T00:59:56;1.20;99.90
25914;DHT22;13718;50.922;5.346;2023-01-26T01:02:21;1.20;99.90
25914;DHT22;13718;50.922;5.346;2023-01-26T01:04:47;1.40;99.90
25914;DHT22;13718;50.922;5.346;2023-01-26T01:07:13;1.40;99.90
25914;DHT22;13718;50.922;5.346;2023-01-26T01:09:38;1.60;99.90
25914;DHT22;13718;50.922;5.346;2023-01-26T01:12:04;1.50;99.90
25914;DHT22;13718;50.922;5.346;2023-01-26T01:14:29;1.40;99.90
25914;DHT22;13718;50.922;5.346;2023-01-26T01:16:55;1.40;99.90
25914;DHT22;13718;50.922;5.346;2023-01-26T01:19:20;1.40;99.90
25914;DHT22;13718;50.922;5.346;2023-01-26T01:21:46;1.30;99.90
25914;DHT22;13718;50.922;5.346;2023-01-26T01:24:11;1.30;99.90
25914;DHT22;13718;50.922;5.346;2023-01-26T01:26:37;1.50;99.90
25914;DHT22;13718;50.922;5.346;2023-01-26T01:29:03;1.40;99.90
25914;DHT22;13718;50.922;5.346;2023-01-26T01:31:28;1.50;99.90
25914;DHT22;13718;50.922;5.346;2023-01-26T01:33:54;1.50;99.90
25914;DHT22;13718;50.922;5.346;2023-01-26T01:36:20;1.50;99.90
25914;DHT22;13718;50.922;5.346;2023-01-26T01:38:46;1.40;99.90
25914;DHT22;13718;50.922;5.346;2023-01-26T01:41:12;1.30;99.90
25914;DHT22;13718;50.922;5.346;2023-01-26T01:43:38;1.20;99.90
25914;DHT22;13718;50.922;5.346;2023-01-26T01:46:14;1.30;99.90
25914;DHT22;13718;50.922;5.346;2023-01-26T01:48:51;1.30;99.90
25914;DHT22;13718;50.922;5.346;2023-01-26T01:51:40;1.20;99.90
25914;DHT22;13718;50.922;5.346;2023-01-26T01:54:06;1.20;99.90
25914;DHT22;13718;50.922;5.346;2023-01-26T01:56:32;1.40;99.90
25914;DHT22;13718;50.922;5.346;2023-01-26T01:58:59;1.40;99.90
25914;DHT22;13718;50.922;5.346;2023-01-26T02:01:25;1.40;99.90
25914;DHT22;13718;50.922;5.346;2023-01-26T02:03:51;1.40;99.90
25914;DHT22;13718;50.922;5.346;2023-01-26T02:06:22;1.40;99.90
25914;DHT22;13718;50.922;5.346;2023-01-26T02:08:52;1.30;99.90
25914;DHT22;13718;50.922;5.346;2023-01-26T02:13:47;1.40;99.90
25914;DHT22;13718;50.922;5.346;2023-01-26T02:16:13;1.30;99.90
25914;DHT22;13718;50.922;5.346;2023-01-26T02:18:39;1.20;99.90
25914;DHT22;13718;50.922;5.346;2023-01-26T02:21:05;1.20;99.90
25914;DHT22;13718;50.922;5.346;2023-01-26T02:28:31;1.70;99.90
25914;DHT22;13718;50.922;5.346;2023-01-26T02:30:57;1.60;99.90
25914;DHT22;13718;50.922;5.346;2023-01-26T02:33:24;1.70;99.90
25914;DHT22;13718;50.922;5.346;2023-01-26T02:35:50;1.50;99.90
25914;DHT22;13718;50.922;5.346;2023-01-26T02:38:15;1.30;99.90
25914;DHT22;13718;50.922;5.346;2023-01-26T02:43:10;1.40;99.90
25914;DHT22;13718;50.922;5.346;2023-01-26T02:45:35;1.30;99.90
25914;DHT22;13718;50.922;5.346;2023-01-26T02:48:02;1.30;99.90
25914;DHT22;13718;50.922;5.346;2023-01-26T02:50:31;1.50;99.90
25914;DHT22;13718;50.922;5.346;2023-01-26T02:52:57;1.60;99.90
25914;DHT22;13718;50.922;5.346;2023-01-26T02:55:23;1.50;99.90
25914;DHT22;13718;50.922;5.346;2023-01-26T03:00:30;1.60;99.90
25914;DHT22;13718;50.922;5.346;2023-01-26T03:02:57;1.60;99.90
25914;DHT22;13718;50.922;5.346;2023-01-26T03:05:23;1.40;99.90
25914;DHT22;13718;50.922;5.346;2023-01-26T03:07:48;1.30;99.90
25914;DHT22;13718;50.922;5.346;2023-01-26T03:10:14;1.40;99.90
25914;DHT22;13718;50.922;5.346;2023-01-26T03:12:43;1.50;99.90
25914;DHT22;13718;50.922;5.346;2023-01-26T03:15:08;1.40;99.90
25914;DHT22;13718;50.922;5.346;2023-01-26T03:17:59;1.40;99.90
25914;DHT22;13718;50.922;5.346;2023-01-26T03:20:44;1.40;99.90
25914;DHT22;13718;50.922;5.346;2023-01-26T03:23:29;1.50;99.90
25914;DHT22;13718;50.922;5.346;2023-01-26T03:26:13;1.50;99.90
25914;DHT22;13718;50.922;5.346;2023-01-26T03:28:57;1.50;99.90
25914;DHT22;13718;50.922;5.346;2023-01-26T03:31:22;1.50;99.90
25914;DHT22;13718;50.922;5.346;2023-01-26T03:33:48;1.40;99.90
25914;DHT22;13718;50.922;5.346;2023-01-26T03:36:13;1.40;99.90
25914;DHT22;13718;50.922;5.346;2023-01-26T03:38:39;1.40;99.90
25914;DHT22;13718;50.922;5.346;2023-01-26T03:41:04;1.40;99.90
25914;DHT22;13718;50.922;5.346;2023-01-26T03:43:49;1.40;99.90
25914;DHT22;13718;50.922;5.346;2023-01-26T03:46:33;1.40;99.90
25914;DHT22;13718;50.922;5.346;2023-01-26T03:49:17;1.40;99.90
25914;DHT22;13718;50.922;5.346;2023-01-26T03:52:01;1.40;99.90
25914;DHT22;13718;50.922;5.346;2023-01-26T03:54:45;1.40;99.90
25914;DHT22;13718;50.922;5.346;2023-01-26T03:57:29;1.40;99.90
25914;DHT22;13718;50.922;5.346;2023-01-26T03:59:55;1.30;99.90
25914;DHT22;13718;50.922;5.346;2023-01-26T04:02:20;1.40;99.90
25914;DHT22;13718;50.922;5.346;2023-01-26T04:05:05;1.50;99.90
25914;DHT22;13718;50.922;5.346;2023-01-26T04:07:49;1.50;99.90
25914;DHT22;13718;50.922;5.346;2023-01-26T04:10:33;1.40;99.90
25914;DHT22;13718;50.922;5.346;2023-01-26T04:12:59;1.40;99.90
25914;DHT22;13718;50.922;5.346;2023-01-26T04:15:43;1.40;99.90
25914;DHT22;13718;50.922;5.346;2023-01-26T04:18:30;1.40;99.90
25914;DHT22;13718;50.922;5.346;2023-01-26T04:21:14;1.30;99.90
25914;DHT22;13718;50.922;5.346;2023-01-26T04:23:56;1.40;99.90
25914;DHT22;13718;50.922;5.346;2023-01-26T04:26:22;1.40;99.90
25914;DHT22;13718;50.922;5.346;2023-01-26T04:28:48;1.40;99.90
25914;DHT22;13718;50.922;5.346;2023-01-26T04:31:13;1.40;99.90
25914;DHT22;13718;50.922;5.346;2023-01-26T04:33:41;1.50;99.90
25914;DHT22;13718;50.922;5.346;2023-01-26T04:36:07;1.60;99.90
25914;DHT22;13718;50.922;5.346;2023-01-26T04:38:33;1.70;99.90
25914;DHT22;13718;50.922;5.346;2023-01-26T04:40:58;1.60;99.90
25914;DHT22;13718;50.922;5.346;2023-01-26T04:43:24;1.60;99.90
25914;DHT22;13718;50.922;5.346;2023-01-26T04:46:03;1.60;99.90
25914;DHT22;13718;50.922;5.346;2023-01-26T04:48:29;1.60;99.90
25914;DHT22;13718;50.922;5.346;2023-01-26T04:50:55;1.60;99.90
25914;DHT22;13718;50.922;5.346;2023-01-26T04:53:21;1.60;99.90
25914;DHT22;13718;50.922;5.346;2023-01-26T04:55:46;1.50;99.90
25914;DHT22;13718;50.922;5.346;2023-01-26T04:58:12;1.50;99.90
25914;DHT22;13718;50.922;5.346;2023-01-26T05:00:37;1.50;99.90
25914;DHT22;13718;50.922;5.346;2023-01-26T05:03:03;1.50;99.90
25914;DHT22;13718;50.922;5.346;2023-01-26T05:05:28;1.60;99.90
25914;DHT22;13718;50.922;5.346;2023-01-26T05:07:54;1.60;99.90
25914;DHT22;13718;50.922;5.346;2023-01-26T05:10:19;1.60;99.90
25914;DHT22;13718;50.922;5.346;2023-01-26T05:12:45;1.60;99.90
25914;DHT22;13718;50.922;5.346;2023-01-26T05:15:10;1.60;99.90
25914;DHT22;13718;50.922;5.346;2023-01-26T05:17:36;1.60;99.90
25914;DHT22;13718;50.922;5.346;2023-01-26T05:20:02;1.60;99.90
25914;DHT22;13718;50.922;5.346;2023-01-26T05:22:27;1.50;99.90
25914;DHT22;13718;50.922;5.346;2023-01-26T05:24:53;1.50;99.90
25914;DHT22;13718;50.922;5.346;2023-01-26T05:27:18;1.50;99.90
25914;DHT22;13718;50.922;5.346;2023-01-26T05:29:50;1.50;99.90
25914;DHT22;13718;50.922;5.346;2023-01-26T05:32:15;1.50;99.90
25914;DHT22;13718;50.922;5.346;2023-01-26T05:34:41;1.60;99.90
25914;DHT22;13718;50.922;5.346;2023-01-26T05:37:07;1.70;99.90
25914;DHT22;13718;50.922;5.346;2023-01-26T05:39:32;1.80;99.90
25914;DHT22;13718;50.922;5.346;2023-01-26T05:41:59;1.80;99.90
25914;DHT22;13718;50.922;5.346;2023-01-26T05:44:24;1.80;99.90
25914;DHT22;13718;50.922;5.346;2023-01-26T05:46:50;1.70;99.90
25914;DHT22;13718;50.922;5.346;2023-01-26T05:49:15;1.70;99.90
25914;DHT22;13718;50.922;5.346;2023-01-26T05:51:41;1.70;99.90
25914;DHT22;13718;50.922;5.346;2023-01-26T05:54:07;1.70;99.90
25914;DHT22;13718;50.922;5.346;2023-01-26T05:56:32;1.60;99.90
25914;DHT22;13718;50.922;5.346;2023-01-26T05:58:58;1.60;99.90
25914;DHT22;13718;50.922;5.346;2023-01-26T06:01:23;1.60;99.90
25914;DHT22;13718;50.922;5.346;2023-01-26T06:03:49;1.60;99.90
25914;DHT22;13718;50.922;5.346;2023-01-26T06:06:14;1.70;99.90
25914;DHT22;13718;50.922;5.346;2023-01-26T06:08:39;1.70;99.90
25914;DHT22;13718;50.922;5.346;2023-01-26T06:11:05;1.70;99.90
25914;DHT22;13718;50.922;5.346;2023-01-26T06:13:30;1.70;99.90
25914;DHT22;13718;50.922;5.346;2023-01-26T06:15:59;1.70;99.90
25914;DHT22;13718;50.922;5.346;2023-01-26T06:18:24;1.70;99.90
25914;DHT22;13718;50.922;5.346;2023-01-26T06:20:50;1.70;99.90
25914;DHT22;13718;50.922;5.346;2023-01-26T06:23:15;1.70;99.90
25914;DHT22;13718;50.922;5.346;2023-01-26T06:25:40;1.70;99.90
25914;DHT22;13718;50.922;5.346;2023-01-26T06:28:06;1.70;99.90
25914;DHT22;13718;50.922;5.346;2023-01-26T06:30:31;1.70;99.90
25914;DHT22;13718;50.922;5.346;2023-01-26T06:32:58;1.70;99.90
25914;DHT22;13718;50.922;5.346;2023-01-26T06:35:24;1.80;99.90
25914;DHT22;13718;50.922;5.346;2023-01-26T06:37:51;1.80;99.90
25914;DHT22;13718;50.922;5.346;2023-01-26T06:40:16;1.80;99.90
25914;DHT22;13718;50.922;5.346;2023-01-26T06:42:46;1.80;99.90
25914;DHT22;13718;50.922;5.346;2023-01-26T06:45:13;1.80;99.90
25914;DHT22;13718;50.922;5.346;2023-01-26T06:47:43;1.80;99.90
25914;DHT22;13718;50.922;5.346;2023-01-26T06:50:08;1.80;99.90
25914;DHT22;13718;50.922;5.346;2023-01-26T06:52:34;1.80;99.90
25914;DHT22;13718;50.922;5.346;2023-01-26T06:55:00;1.80;99.90
25914;DHT22;13718;50.922;5.346;2023-01-26T06:57:25;1.80;99.90
25914;DHT22;13718;50.922;5.346;2023-01-26T06:59:51;1.70;99.90
25914;DHT22;13718;50.922;5.346;2023-01-26T07:02:17;1.80;99.90
25914;DHT22;13718;50.922;5.346;2023-01-26T07:04:43;1.80;99.90
25914;DHT22;13718;50.922;5.346;2023-01-26T07:07:09;1.70;99.90
25914;DHT22;13718;50.922;5.346;2023-01-26T07:09:34;1.70;99.90
25914;DHT22;13718;50.922;5.346;2023-01-26T07:12:00;1.80;99.90
25914;DHT22;13718;50.922;5.346;2023-01-26T07:14:25;1.80;99.90
25914;DHT22;13718;50.922;5.346;2023-01-26T07:16:51;1.80;99.90
25914;DHT22;13718;50.922;5.346;2023-01-26T07:19:16;1.80;99.90
25914;DHT22;13718;50.922;5.346;2023-01-26T07:21:42;1.80;99.90
25914;DHT22;13718;50.922;5.346;2023-01-26T07:24:07;1.80;99.90
25914;DHT22;13718;50.922;5.346;2023-01-26T07:26:33;1.80;99.90
25914;DHT22;13718;50.922;5.346;2023-01-26T07:28:58;1.80;99.90
25914;DHT22;13718;50.922;5.346;2023-01-26T07:31:24;1.80;99.90
25914;DHT22;13718;50.922;5.346;2023-01-26T07:33:50;1.80;99.90
25914;DHT22;13718;50.922;5.346;2023-01-26T07:36:15;1.80;99.90
25914;DHT22;13718;50.922;5.346;2023-01-26T07:38:41;1.80;99.90
25914;DHT22;13718;50.922;5.346;2023-01-26T07:41:08;1.90;99.90
25914;DHT22;13718;50.922;5.346;2023-01-26T07:43:34;1.90;99.90
25914;DHT22;13718;50.922;5.346;2023-01-26T07:46:00;1.90;99.90
25914;DHT22;13718;50.922;5.346;2023-01-26T07:48:25;1.90;99.90
25914;DHT22;13718;50.922;5.346;2023-01-26T07:50:56;1.90;99.90
25914;DHT22;13718;50.922;5.346;2023-01-26T07:53:22;1.90;99.90
25914;DHT22;13718;50.922;5.346;2023-01-26T07:55:48;1.90;99.90
25914;DHT22;13718;50.922;5.346;2023-01-26T07:58:13;1.90;99.90
25914;DHT22;13718;50.922;5.346;2023-01-26T08:00:39;1.90;99.90
25914;DHT22;13718;50.922;5.346;2023-01-26T08:03:05;1.90;99.90
25914;DHT22;13718;50.922;5.346;2023-01-26T08:05:30;2.00;99.90
25914;DHT22;13718;50.922;5.346;2023-01-26T08:07:59;2.00;99.90
25914;DHT22;13718;50.922;5.346;2023-01-26T08:10:25;2.00;99.90
25914;DHT22;13718;50.922;5.346;2023-01-26T08:12:51;2.00;99.90
25914;DHT22;13718;50.922;5.346;2023-01-26T08:15:16;2.00;99.90
25914;DHT22;13718;50.922;5.346;2023-01-26T08:17:42;2.10;99.90
25914;DHT22;13718;50.922;5.346;2023-01-26T08:20:07;2.10;99.90
25914;DHT22;13718;50.922;5.346;2023-01-26T08:22:33;2.10;99.90
25914;DHT22;13718;50.922;5.346;2023-01-26T08:24:59;2.10;99.90
25914;DHT22;13718;50.922;5.346;2023-01-26T08:27:24;2.10;99.90
25914;DHT22;13718;50.922;5.346;2023-01-26T08:29:50;2.10;99.90
25914;DHT22;13718;50.922;5.346;2023-01-26T08:32:15;2.20;99.90
25914;DHT22;13718;50.922;5.346;2023-01-26T08:34:41;2.20;99.90
25914;DHT22;13718;50.922;5.346;2023-01-26T08:37:06;2.20;99.90
25914;DHT22;13718;50.922;5.346;2023-01-26T08:39:32;2.20;99.90
25914;DHT22;13718;50.922;5.346;2023-01-26T08:41:57;2.20;99.90
25914;DHT22;13718;50.922;5.346;2023-01-26T08:44:23;2.20;99.90
25914;DHT22;13718;50.922;5.346;2023-01-26T08:46:48;2.30;99.90
25914;DHT22;13718;50.922;5.346;2023-01-26T08:49:14;2.30;99.90
25914;DHT22;13718;50.922;5.346;2023-01-26T08:51:39;2.30;99.90
25914;DHT22;13718;50.922;5.346;2023-01-26T08:54:05;2.40;99.90
25914;DHT22;13718;50.922;5.346;2023-01-26T08:56:33;2.40;99.90
25914;DHT22;13718;50.922;5.346;2023-01-26T08:58:58;2.40;99.90
25914;DHT22;13718;50.922;5.346;2023-01-26T09:01:24;2.50;99.90
25914;DHT22;13718;50.922;5.346;2023-01-26T09:03:49;2.50;99.90
25914;DHT22;13718;50.922;5.346;2023-01-26T09:06:17;2.50;99.90
25914;DHT22;13718;50.922;5.346;2023-01-26T09:08:42;2.60;99.90
25914;DHT22;13718;50.922;5.346;2023-01-26T09:11:08;2.60;99.90
25914;DHT22;13718;50.922;5.346;2023-01-26T09:13:34;2.70;99.90
25914;DHT22;13718;50.922;5.346;2023-01-26T09:16:08;2.70;99.90
25914;DHT22;13718;50.922;5.346;2023-01-26T09:18:36;2.70;99.90
25914;DHT22;13718;50.922;5.346;2023-01-26T09:21:03;2.80;99.90
25914;DHT22;13718;50.922;5.346;2023-01-26T09:23:28;2.80;99.90
25914;DHT22;13718;50.922;5.346;2023-01-26T09:25:54;2.90;99.90
25914;DHT22;13718;50.922;5.346;2023-01-26T09:28:19;2.90;99.90
25914;DHT22;13718;50.922;5.346;2023-01-26T09:30:45;3.00;99.90
25914;DHT22;13718;50.922;5.346;2023-01-26T09:33:10;3.10;99.90
25914;DHT22;13718;50.922;5.346;2023-01-26T09:35:36;3.20;99.90
25914;DHT22;13718;50.922;5.346;2023-01-26T09:38:01;3.20;99.90
25914;DHT22;13718;50.922;5.346;2023-01-26T09:40:30;3.30;99.90
25914;DHT22;13718;50.922;5.346;2023-01-26T09:43:05;3.40;99.90
25914;DHT22;13718;50.922;5.346;2023-01-26T09:45:42;3.50;99.90
25914;DHT22;13718;50.922;5.346;2023-01-26T09:48:19;3.50;99.90
25914;DHT22;13718;50.922;5.346;2023-01-26T09:50:47;3.50;99.90
25914;DHT22;13718;50.922;5.346;2023-01-26T09:53:19;3.50;99.90
25914;DHT22;13718;50.922;5.346;2023-01-26T09:55:48;3.50;99.90
25914;DHT22;13718;50.922;5.346;2023-01-26T09:58:18;3.60;99.90
25914;DHT22;13718;50.922;5.346;2023-01-26T10:00:47;3.60;99.90
25914;DHT22;13718;50.922;5.346;2023-01-26T10:03:19;3.70;99.90
25914;DHT22;13718;50.922;5.346;2023-01-26T10:08:11;3.80;99.90
25914;DHT22;13718;50.922;5.346;2023-01-26T10:10:39;3.90;99.90
25914;DHT22;13718;50.922;5.346;2023-01-26T10:13:05;3.90;99.90
25914;DHT22;13718;50.922;5.346;2023-01-26T10:15:34;3.90;99.90
25914;DHT22;13718;50.922;5.346;2023-01-26T10:18:07;3.90;99.90
25914;DHT22;13718;50.922;5.346;2023-01-26T10:20:44;3.90;99.90
25914;DHT22;13718;50.922;5.346;2023-01-26T10:26:14;3.90;99.90
25914;DHT22;13718;50.922;5.346;2023-01-26T10:28:40;3.90;99.90
25914;DHT22;13718;50.922;5.346;2023-01-26T10:31:11;4.00;99.90
25914;DHT22;13718;50.922;5.346;2023-01-26T10:33:38;4.00;99.90
25914;DHT22;13718;50.922;5.346;2023-01-26T10:36:06;4.00;99.90
25914;DHT22;13718;50.922;5.346;2023-01-26T10:41:01;4.10;99.90
25914;DHT22;13718;50.922;5.346;2023-01-26T10:43:27;4.20;99.90
25914;DHT22;13718;50.922;5.346;2023-01-26T10:45:53;4.20;99.90
25914;DHT22;13718;50.922;5.346;2023-01-26T10:48:20;4.20;99.90
25914;DHT22;13718;50.922;5.346;2023-01-26T10:50:46;4.20;99.90
25914;DHT22;13718;50.922;5.346;2023-01-26T10:53:30;4.20;99.90
25914;DHT22;13718;50.922;5.346;2023-01-26T10:56:14;4.20;99.90
25914;DHT22;13718;50.922;5.346;2023-01-26T11:01:13;4.10;99.90
25914;DHT22;13718;50.922;5.346;2023-01-26T11:03:40;4.00;99.90
25914;DHT22;13718;50.922;5.346;2023-01-26T11:06:07;4.00;99.90
25914;DHT22;13718;50.922;5.346;2023-01-26T11:08:37;3.90;99.90
25914;DHT22;13718;50.922;5.346;2023-01-26T11:11:03;3.90;99.90
25914;DHT22;13718;50.922;5.346;2023-01-26T11:13:29;3.90;99.90
25914;DHT22;13718;50.922;5.346;2023-01-26T11:16:13;3.90;99.90
25914;DHT22;13718;50.922;5.346;2023-01-26T11:19:15;3.90;99.90
25914;DHT22;13718;50.922;5.346;2023-01-26T11:22:15;4.00;99.90
25914;DHT22;13718;50.922;5.346;2023-01-26T11:32:11;4.00;99.90
25914;DHT22;13718;50.922;5.346;2023-01-26T11:39:53;4.10;99.90
25914;DHT22;13718;50.922;5.346;2023-01-26T11:42:30;4.20;99.90
25914;DHT22;13718;50.922;5.346;2023-01-26T11:50:02;4.10;99.90
25914;DHT22;13718;50.922;5.346;2023-01-26T12:02:41;4.40;99.90
25914;DHT22;13718;50.922;5.346;2023-01-26T12:05:17;4.30;99.90
25914;DHT22;13718;50.922;5.346;2023-01-26T12:07:46;4.40;99.90
25914;DHT22;13718;50.922;5.346;2023-01-26T12:10:20;4.40;99.90
25914;DHT22;13718;50.922;5.346;2023-01-26T12:12:48;4.40;99.90
25914;DHT22;13718;50.922;5.346;2023-01-26T12:15:19;4.30;99.90
25914;DHT22;13718;50.922;5.346;2023-01-26T12:25:37;4.20;99.90
25914;DHT22;13718;50.922;5.346;2023-01-26T12:33:00;4.20;99.90
25914;DHT22;13718;50.922;5.346;2023-01-26T12:35:29;4.30;99.90
25914;DHT22;13718;50.922;5.346;2023-01-26T12:38:01;4.30;99.90
25914;DHT22;13718;50.922;5.346;2023-01-26T12:42:56;4.40;99.90
25914;DHT22;13718;50.922;5.346;2023-01-26T12:45:27;4.40;99.90
25914;DHT22;13718;50.922;5.346;2023-01-26T12:47:55;4.40;99.90
25914;DHT22;13718;50.922;5.346;2023-01-26T12:50:36;4.40;99.90
25914;DHT22;13718;50.922;5.346;2023-01-26T12:53:04;4.60;99.90
25914;DHT22;13718;50.922;5.346;2023-01-26T12:55:37;4.50;99.90
25914;DHT22;13718;50.922;5.346;2023-01-26T12:58:09;4.40;99.90
25914;DHT22;13718;50.922;5.346;2023-01-26T13:00:36;4.40;99.90
25914;DHT22;13718;50.922;5.346;2023-01-26T13:03:24;4.50;99.90
25914;DHT22;13718;50.922;5.346;2023-01-26T13:11:58;4.60;99.90
25914;DHT22;13718;50.922;5.346;2023-01-26T13:16:53;4.70;99.90
25914;DHT22;13718;50.922;5.346;2023-01-26T13:22:07;4.70;99.90
25914;DHT22;13718;50.922;5.346;2023-01-26T13:29:52;4.80;99.90
25914;DHT22;13718;50.922;5.346;2023-01-26T13:34:47;4.90;99.90
25914;DHT22;13718;50.922;5.346;2023-01-26T13:37:15;4.80;99.90
25914;DHT22;13718;50.922;5.346;2023-01-26T13:39:43;5.00;99.90
25914;DHT22;13718;50.922;5.346;2023-01-26T13:45:27;5.40;99.90
25914;DHT22;13718;50.922;5.346;2023-01-26T13:47:55;5.40;99.90
25914;DHT22;13718;50.922;5.346;2023-01-26T13:50:32;5.50;99.90
25914;DHT22;13718;50.922;5.346;2023-01-26T13:52:58;5.50;99.90
25914;DHT22;13718;50.922;5.346;2023-01-26T13:55:28;5.50;99.90
25914;DHT22;13718;50.922;5.346;2023-01-26T14:00:39;5.70;99.90
25914;DHT22;13718;50.922;5.346;2023-01-26T14:03:17;5.70;99.90
25914;DHT22;13718;50.922;5.346;2023-01-26T14:05:49;5.50;99.90
25914;DHT22;13718;50.922;5.346;2023-01-26T14:08:15;5.50;99.90
25914;DHT22;13718;50.922;5.346;2023-01-26T14:10:42;5.50;99.90
25914;DHT22;13718;50.922;5.346;2023-01-26T14:13:12;5.60;99.90
25914;DHT22;13718;50.922;5.346;2023-01-26T14:15:43;5.60;99.90
25914;DHT22;13718;50.922;5.346;2023-01-26T14:18:13;5.80;99.90
25914;DHT22;13718;50.922;5.346;2023-01-26T14:20:44;5.70;99.90
25914;DHT22;13718;50.922;5.346;2023-01-26T14:23:13;5.70;99.90
25914;DHT22;13718;50.922;5.346;2023-01-26T14:25:39;5.90;99.90
25914;DHT22;13718;50.922;5.346;2023-01-26T14:28:05;5.80;99.90
25914;DHT22;13718;50.922;5.346;2023-01-26T14:30:37;5.80;99.90
25914;DHT22;13718;50.922;5.346;2023-01-26T14:33:03;5.80;99.90
25914;DHT22;13718;50.922;5.346;2023-01-26T14:35:30;5.90;99.90
25914;DHT22;13718;50.922;5.346;2023-01-26T14:38:12;5.90;99.90
25914;DHT22;13718;50.922;5.346;2023-01-26T14:40:45;6.00;99.90
25914;DHT22;13718;50.922;5.346;2023-01-26T14:43:11;6.00;99.90
25914;DHT22;13718;50.922;5.346;2023-01-26T14:45:37;6.00;99.90
25914;DHT22;13718;50.922;5.346;2023-01-26T14:48:04;6.10;99.90
25914;DHT22;13718;50.922;5.346;2023-01-26T14:50:30;6.10;99.90
25914;DHT22;13718;50.922;5.346;2023-01-26T14:52:56;6.30;99.90
25914;DHT22;13718;50.922;5.346;2023-01-26T14:55:27;6.20;99.90
25914;DHT22;13718;50.922;5.346;2023-01-26T14:57:53;6.10;99.90
25914;DHT22;13718;50.922;5.346;2023-01-26T15:02:45;6.20;99.90
25914;DHT22;13718;50.922;5.346;2023-01-26T15:05:13;6.20;99.90
25914;DHT22;13718;50.922;5.346;2023-01-26T15:15:36;6.10;99.90
25914;DHT22;13718;50.922;5.346;2023-01-26T15:18:02;6.20;99.90
25914;DHT22;13718;50.922;5.346;2023-01-26T15:22:53;6.20;99.90
25914;DHT22;13718;50.922;5.346;2023-01-26T15:25:21;6.20;99.90
25914;DHT22;13718;50.922;5.346;2023-01-26T15:27:48;6.20;99.90
25914;DHT22;13718;50.922;5.346;2023-01-26T15:30:15;6.20;99.90
25914;DHT22;13718;50.922;5.346;2023-01-26T15:32:40;6.20;99.90
25914;DHT22;13718;50.922;5.346;2023-01-26T15:35:28;6.20;99.90
25914;DHT22;13718;50.922;5.346;2023-01-26T15:38:02;6.30;99.90
25914;DHT22;13718;50.922;5.346;2023-01-26T15:40:28;6.30;99.90
25914;DHT22;13718;50.922;5.346;2023-01-26T15:45:56;6.20;99.90
25914;DHT22;13718;50.922;5.346;2023-01-26T15:48:22;6.20;99.90
25914;DHT22;13718;50.922;5.346;2023-01-26T15:50:48;6.20;99.90
25914;DHT22;13718;50.922;5.346;2023-01-26T15:53:15;6.10;99.90
25914;DHT22;13718;50.922;5.346;2023-01-26T15:55:40;6.10;99.90
25914;DHT22;13718;50.922;5.346;2023-01-26T15:58:06;6.10;99.90
25914;DHT22;13718;50.922;5.346;2023-01-26T16:00:31;6.10;99.90
25914;DHT22;13718;50.922;5.346;2023-01-26T16:02:57;6.20;99.90
25914;DHT22;13718;50.922;5.346;2023-01-26T16:05:23;6.20;99.90
25914;DHT22;13718;50.922;5.346;2023-01-26T16:07:48;6.10;99.90
25914;DHT22;13718;50.922;5.346;2023-01-26T16:10:15;6.00;99.90
25914;DHT22;13718;50.922;5.346;2023-01-26T16:12:42;6.00;99.90
25914;DHT22;13718;50.922;5.346;2023-01-26T16:16:08;6.00;99.90
25914;DHT22;13718;50.922;5.346;2023-01-26T16:18:03;6.00;99.90
25914;DHT22;13718;50.922;5.346;2023-01-26T16:20:29;6.00;99.90
25914;DHT22;13718;50.922;5.346;2023-01-26T16:22:54;5.90;99.90
25914;DHT22;13718;50.922;5.346;2023-01-26T16:27:45;5.80;99.90
25914;DHT22;13718;50.922;5.346;2023-01-26T16:30:10;5.80;99.90
25914;DHT22;13718;50.922;5.346;2023-01-26T16:32:36;5.80;99.90
25914;DHT22;13718;50.922;5.346;2023-01-26T16:35:07;5.70;99.90
25914;DHT22;13718;50.922;5.346;2023-01-26T16:37:33;5.70;99.90
25914;DHT22;13718;50.922;5.346;2023-01-26T16:39:59;5.60;99.90
25914;DHT22;13718;50.922;5.346;2023-01-26T16:42:24;5.50;99.90
25914;DHT22;13718;50.922;5.346;2023-01-26T16:44:49;5.50;99.90
25914;DHT22;13718;50.922;5.346;2023-01-26T16:47:15;5.50;99.90
25914;DHT22;13718;50.922;5.346;2023-01-26T16:49:40;5.50;99.90
25914;DHT22;13718;50.922;5.346;2023-01-26T16:52:07;5.50;99.90
25914;DHT22;13718;50.922;5.346;2023-01-26T16:54:32;5.50;99.90
25914;DHT22;13718;50.922;5.346;2023-01-26T16:56:58;5.50;99.90
25914;DHT22;13718;50.922;5.346;2023-01-26T16:59:23;5.50;99.90
25914;DHT22;13718;50.922;5.346;2023-01-26T17:01:49;5.60;99.90
25914;DHT22;13718;50.922;5.346;2023-01-26T17:04:14;5.60;99.90
25914;DHT22;13718;50.922;5.346;2023-01-26T17:06:40;5.70;99.90
25914;DHT22;13718;50.922;5.346;2023-01-26T17:09:05;5.70;99.90
25914;DHT22;13718;50.922;5.346;2023-01-26T17:11:31;5.70;99.90
25914;DHT22;13718;50.922;5.346;2023-01-26T17:13:56;5.70;99.90
25914;DHT22;13718;50.922;5.346;2023-01-26T17:16:24;5.70;99.90
25914;DHT22;13718;50.922;5.346;2023-01-26T17:18:52;5.70;99.90
25914;DHT22;13718;50.922;5.346;2023-01-26T17:21:18;5.70;99.90
25914;DHT22;13718;50.922;5.346;2023-01-26T17:23:46;5.70;99.90
25914;DHT22;13718;50.922;5.346;2023-01-26T17:26:12;5.70;99.90
25914;DHT22;13718;50.922;5.346;2023-01-26T17:28:39;5.70;99.90
25914;DHT22;13718;50.922;5.346;2023-01-26T17:31:06;5.80;99.90
25914;DHT22;13718;50.922;5.346;2023-01-26T17:33:31;5.80;99.90
25914;DHT22;13718;50.922;5.346;2023-01-26T17:35:58;5.90;99.90
25914;DHT22;13718;50.922;5.346;2023-01-26T17:38:23;5.80;99.90
25914;DHT22;13718;50.922;5.346;2023-01-26T17:40:58;5.90;99.90